createdAt,value
2022-10-02T00:00:43.805Z,10.40
2022-10-02T00:03:18.898Z,10.35
2022-10-02T00:05:51.827Z,10.32
2022-10-02T00:08:24.293Z,10.29
2022-10-02T00:10:55.231Z,10.26
2022-10-02T00:13:27.541Z,10.23
2022-10-02T00:15:56.386Z,10.18
2022-10-02T00:18:29.304Z,10.15
2022-10-02T00:21:04.841Z,10.07
2022-10-02T00:23:38.079Z,10.01
2022-10-02T00:26:11.069Z,9.98
2022-10-02T00:28:47.218Z,9.92
2022-10-02T00:31:33.987Z,9.92
2022-10-02T00:34:15.584Z,9.82
2022-10-02T00:36:55.340Z,9.75
2022-10-02T00:39:34.222Z,9.76
2022-10-02T00:42:31.852Z,9.70
2022-10-02T00:45:35.879Z,9.67
2022-10-02T00:48:13.650Z,9.67
2022-10-02T00:50:51.815Z,9.67
2022-10-02T00:53:31.049Z,9.64
2022-10-02T00:56:11.695Z,9.57
2022-10-02T00:58:58.440Z,9.58
2022-10-02T01:01:36.834Z,9.58
2022-10-02T01:04:08.654Z,9.59
2022-10-02T01:06:35.989Z,9.59
2022-10-02T01:09:03.585Z,9.55
2022-10-02T01:11:32.130Z,9.54
2022-10-02T01:13:59.534Z,9.56
2022-10-02T01:16:30.973Z,9.56
2022-10-02T01:18:59.369Z,9.61
2022-10-02T01:21:36.807Z,9.64
2022-10-02T01:24:12.900Z,9.70
2022-10-02T01:26:43.356Z,9.66
2022-10-02T01:29:10.686Z,9.63
2022-10-02T01:31:38.504Z,9.58
2022-10-02T01:34:06.179Z,9.56
2022-10-02T01:36:34.413Z,9.55
2022-10-02T01:39:03.537Z,9.56
2022-10-02T01:41:31.764Z,9.54
2022-10-02T01:44:02.215Z,9.52
2022-10-02T01:46:37.857Z,9.52
2022-10-02T01:49:24.878Z,9.45
2022-10-02T01:52:08.806Z,9.40
2022-10-02T01:54:48.485Z,9.36
2022-10-02T01:57:24.962Z,9.30
2022-10-02T02:00:05.618Z,9.28
2022-10-02T02:02:42.587Z,9.19
2022-10-02T02:05:21.136Z,9.12
2022-10-02T02:07:55.069Z,9.10
2022-10-02T02:10:34.294Z,9.06
2022-10-02T02:13:06.746Z,9.07
2022-10-02T02:15:41.298Z,9.03
2022-10-02T02:18:14.237Z,8.96
2022-10-02T02:20:47.434Z,8.95
2022-10-02T02:23:18.051Z,8.90
2022-10-02T02:25:48.910Z,8.86
2022-10-02T02:28:21.489Z,8.86
2022-10-02T02:30:54.428Z,8.82
2022-10-02T02:33:25.883Z,8.82
2022-10-02T02:35:56.838Z,8.77
2022-10-02T02:38:29.626Z,8.77
2022-10-02T02:41:00.038Z,8.70
2022-10-02T02:43:32.281Z,8.68
2022-10-02T02:46:08.066Z,8.64
2022-10-02T02:48:39.054Z,8.59
2022-10-02T02:51:12.769Z,8.59
2022-10-02T02:53:45.785Z,8.58
2022-10-02T02:56:15.876Z,8.60
2022-10-02T02:58:49.432Z,8.60
2022-10-02T03:01:18.179Z,8.60
2022-10-02T03:03:45.577Z,8.59
2022-10-02T03:06:29.592Z,8.58
2022-10-02T03:08:57.106Z,8.58
2022-10-02T03:11:34.274Z,8.58
2022-10-02T03:14:10.698Z,8.57
2022-10-02T03:16:50.743Z,8.49
2022-10-02T03:19:34.276Z,8.48
2022-10-02T03:22:10.445Z,8.51
2022-10-02T03:24:44.680Z,8.47
2022-10-02T03:27:16.026Z,8.47
2022-10-02T03:29:48.047Z,8.43
2022-10-02T03:32:19.517Z,8.39
2022-10-02T03:34:49.134Z,8.39
2022-10-02T03:37:18.274Z,8.37
2022-10-02T03:39:46.389Z,8.30
2022-10-02T03:42:16.166Z,8.33
2022-10-02T03:44:44.338Z,8.32
2022-10-02T03:47:11.609Z,8.30
2022-10-02T03:49:40.983Z,8.28
2022-10-02T03:52:14.062Z,8.29
2022-10-02T03:54:41.571Z,8.24
2022-10-02T03:57:14.986Z,8.26
2022-10-02T03:59:48.547Z,8.22
2022-10-02T04:02:32.425Z,8.19
2022-10-02T04:05:11.390Z,8.10
2022-10-02T04:07:42.565Z,8.07
2022-10-02T04:10:25.710Z,8.03
2022-10-02T04:12:59.671Z,7.97
2022-10-02T04:15:32.962Z,8.01
2022-10-02T04:18:04.542Z,7.98
2022-10-02T04:20:41.145Z,7.97
2022-10-02T04:23:18.316Z,7.97
2022-10-02T04:25:50.562Z,7.98
2022-10-02T04:28:22.974Z,7.94
2022-10-02T04:30:53.608Z,7.90
2022-10-02T04:33:24.707Z,7.98
2022-10-02T04:36:10.327Z,7.99
2022-10-02T04:38:47.622Z,7.93
2022-10-02T04:41:31.399Z,7.90
2022-10-02T04:44:11.151Z,7.89
2022-10-02T04:47:12.326Z,7.82
2022-10-02T04:49:57.282Z,7.79
2022-10-02T04:53:14.846Z,7.76
2022-10-02T04:55:59.541Z,7.77
2022-10-02T04:58:46.275Z,7.77
2022-10-02T05:01:26.594Z,7.76
2022-10-02T05:04:15.233Z,7.73
2022-10-02T05:06:58.073Z,7.73
2022-10-02T05:09:30.730Z,7.74
2022-10-02T05:12:28.345Z,7.69
2022-10-02T05:15:34.893Z,7.69
2022-10-02T05:18:18.080Z,7.65
2022-10-02T05:21:05.040Z,7.63
2022-10-02T05:23:54.617Z,7.65
2022-10-02T05:26:36.499Z,7.64
2022-10-02T05:29:23.064Z,7.62
2022-10-02T05:32:09.365Z,7.65
2022-10-02T05:34:54.876Z,7.66
2022-10-02T05:37:35.189Z,7.67
2022-10-02T05:40:11.365Z,7.66
2022-10-02T05:42:47.195Z,7.69
2022-10-02T05:45:19.826Z,7.69
2022-10-02T05:47:51.231Z,7.69
2022-10-02T05:50:20.539Z,7.72
2022-10-02T05:52:54.338Z,7.72
2022-10-02T05:55:29.137Z,7.73
2022-10-02T05:58:03.191Z,7.72
2022-10-02T06:00:38.010Z,7.69
2022-10-02T06:03:15.616Z,7.71
2022-10-02T06:05:50.254Z,7.73
2022-10-02T06:08:24.256Z,7.79
2022-10-02T06:10:56.208Z,7.79
2022-10-02T06:13:30.092Z,7.84
2022-10-02T06:16:05.683Z,7.87
2022-10-02T06:18:38.565Z,7.93
2022-10-02T06:21:11.209Z,8.01
2022-10-02T06:23:43.226Z,8.09
2022-10-02T06:26:14.131Z,8.22
2022-10-02T06:28:49.140Z,8.36
2022-10-02T06:31:22.469Z,8.46
2022-10-02T06:33:54.335Z,8.55
2022-10-02T06:36:44.010Z,8.68
2022-10-02T06:39:31.822Z,8.71
2022-10-02T06:42:14.249Z,8.77
2022-10-02T06:44:50.438Z,8.84
2022-10-02T06:47:32.654Z,8.90
2022-10-02T06:50:20.337Z,8.95
2022-10-02T06:52:55.140Z,9.02
2022-10-02T06:55:41.037Z,9.07
2022-10-02T06:58:36.975Z,9.18
2022-10-02T07:01:16.987Z,9.21
2022-10-02T07:04:03.060Z,9.24
2022-10-02T07:06:42.555Z,9.27
2022-10-02T07:09:42.903Z,9.32
2022-10-02T07:12:33.152Z,9.33
2022-10-02T07:15:19.134Z,9.39
2022-10-02T07:17:57.705Z,9.41
2022-10-02T07:20:40.513Z,9.49
2022-10-02T07:23:40.652Z,9.53
2022-10-02T07:26:24.647Z,9.61
2022-10-02T07:28:58.428Z,9.69
2022-10-02T07:31:40.696Z,9.82
2022-10-02T07:34:23.504Z,9.86
2022-10-02T07:37:01.178Z,9.97
2022-10-02T07:39:45.447Z,10.04
2022-10-02T07:42:26.723Z,10.10
2022-10-02T07:45:22.127Z,10.20
2022-10-02T07:48:19.070Z,10.32
2022-10-02T07:51:01.930Z,10.37
2022-10-02T07:53:39.703Z,10.46
2022-10-02T07:56:12.639Z,10.54
2022-10-02T07:58:46.715Z,10.60
2022-10-02T08:01:20.434Z,10.68
2022-10-02T08:03:52.906Z,10.73
2022-10-02T08:06:20.313Z,10.81
2022-10-02T08:08:52.631Z,10.89
2022-10-02T08:11:27.441Z,10.94
2022-10-02T08:14:00.498Z,11.03
2022-10-02T08:16:35.773Z,11.13
2022-10-02T08:19:07.711Z,11.23
2022-10-02T08:21:41.932Z,11.31
2022-10-02T08:24:14.590Z,11.36
2022-10-02T08:26:49.685Z,11.43
2022-10-02T08:29:24.904Z,11.49
2022-10-02T08:31:52.983Z,11.53
2022-10-02T08:34:22.072Z,11.59
2022-10-02T08:37:20.835Z,11.63
2022-10-02T08:40:22.265Z,11.73
2022-10-02T08:43:22.461Z,11.78
2022-10-02T08:46:33.999Z,11.85
2022-10-02T08:49:42.395Z,11.96
2022-10-02T08:52:53.283Z,12.05
2022-10-02T08:55:46.000Z,12.13
2022-10-02T08:58:48.507Z,12.20
2022-10-02T09:01:44.690Z,12.31
2022-10-02T09:04:48.818Z,12.44
2022-10-02T09:07:51.669Z,12.51
2022-10-02T09:10:55.825Z,12.59
2022-10-02T09:14:00.558Z,12.72
2022-10-02T09:16:33.219Z,12.72
2022-10-02T09:19:02.667Z,12.79
2022-10-02T09:22:04.096Z,12.88
2022-10-02T09:25:06.937Z,12.98
2022-10-02T09:28:15.549Z,13.02
2022-10-02T09:31:36.218Z,13.06
2022-10-02T09:34:36.318Z,13.20
2022-10-02T09:37:41.256Z,13.27
2022-10-02T09:40:45.337Z,13.38
2022-10-02T09:43:55.371Z,13.44
2022-10-02T09:47:02.214Z,13.49
2022-10-02T09:50:04.074Z,13.55
2022-10-02T09:53:00.969Z,13.63
2022-10-02T09:55:55.501Z,13.68
2022-10-02T09:59:02.282Z,13.73
2022-10-02T10:01:45.494Z,13.77
2022-10-02T10:05:04.580Z,13.77
2022-10-02T10:08:06.931Z,13.84
2022-10-02T10:11:10.251Z,13.87
2022-10-02T10:14:10.103Z,13.94
2022-10-02T10:17:01.644Z,13.91
2022-10-02T10:19:53.137Z,13.91
2022-10-02T10:22:45.608Z,13.89
2022-10-02T10:25:47.403Z,13.94
2022-10-02T10:28:55.258Z,13.96
2022-10-02T10:32:11.399Z,13.85
2022-10-02T10:35:09.002Z,13.81
2022-10-02T10:38:03.675Z,13.83
2022-10-02T10:40:38.849Z,13.83
2022-10-02T10:43:46.110Z,13.81
2022-10-02T10:46:51.142Z,13.76
2022-10-02T10:49:43.414Z,13.72
2022-10-02T10:52:29.481Z,13.70
2022-10-02T10:55:08.662Z,13.73
2022-10-02T10:57:55.987Z,13.75
2022-10-02T11:00:25.723Z,13.70
2022-10-02T11:03:32.520Z,13.71
2022-10-02T11:06:31.521Z,13.75
2022-10-02T11:09:27.857Z,13.79
2022-10-02T11:12:16.477Z,13.82
2022-10-02T11:15:07.097Z,13.85
2022-10-02T11:17:50.493Z,13.87
2022-10-02T11:20:42.088Z,13.89
2022-10-02T11:23:27.505Z,13.89
2022-10-02T11:26:28.002Z,13.90
2022-10-02T11:29:25.709Z,13.87
2022-10-02T11:32:17.135Z,13.83
2022-10-02T11:35:21.445Z,13.84
2022-10-02T11:38:09.889Z,13.88
2022-10-02T11:41:07.385Z,13.94
2022-10-02T11:44:05.276Z,13.94
2022-10-02T11:46:59.034Z,13.97
2022-10-02T11:49:52.753Z,14.07
2022-10-02T11:52:38.233Z,14.10
2022-10-02T11:55:32.857Z,14.15
2022-10-02T11:58:14.571Z,14.17
2022-10-02T12:01:17.383Z,14.24
2022-10-02T12:04:05.266Z,14.29
2022-10-02T12:06:53.642Z,14.33
2022-10-02T12:09:34.885Z,14.35
2022-10-02T12:12:13.613Z,14.35
2022-10-02T12:14:51.058Z,14.35
2022-10-02T12:17:50.244Z,14.40
2022-10-02T12:20:28.768Z,14.38
2022-10-02T12:23:06.745Z,14.34
2022-10-02T12:25:43.595Z,14.41
2022-10-02T12:28:27.059Z,14.45
2022-10-02T12:31:03.214Z,14.46
2022-10-02T12:33:37.376Z,14.51
2022-10-02T12:36:35.694Z,14.55
2022-10-02T12:39:21.278Z,14.62
2022-10-02T12:42:05.636Z,14.69
2022-10-02T12:45:11.937Z,14.69
2022-10-02T12:48:01.477Z,14.74
2022-10-02T12:50:54.255Z,14.79
2022-10-02T12:53:56.667Z,14.80
2022-10-02T12:56:54.266Z,14.82
2022-10-02T12:59:30.853Z,14.85
2022-10-02T13:03:00.869Z,14.83
2022-10-02T13:06:02.452Z,14.87
2022-10-02T13:08:54.263Z,14.87
2022-10-02T13:11:32.974Z,14.87
2022-10-02T13:14:22.888Z,14.88
2022-10-02T13:17:17.268Z,14.91
2022-10-02T13:19:58.865Z,14.86
2022-10-02T13:22:38.565Z,14.92
2022-10-02T13:25:45.114Z,14.98
2022-10-02T13:28:37.832Z,15.00
2022-10-02T13:31:16.067Z,15.04
2022-10-02T13:34:05.871Z,15.06
2022-10-02T13:36:48.835Z,15.10
2022-10-02T13:39:50.576Z,15.12
2022-10-02T13:42:35.541Z,15.08
2022-10-02T13:45:13.785Z,15.07
2022-10-02T13:47:44.466Z,15.12
2022-10-02T13:50:26.628Z,15.14
2022-10-02T13:53:25.936Z,15.12
2022-10-02T13:55:55.711Z,15.13
2022-10-02T13:58:38.272Z,15.18
2022-10-02T14:01:19.018Z,15.22
2022-10-02T14:04:06.937Z,15.25
2022-10-02T14:06:38.914Z,15.32
2022-10-02T14:09:23.382Z,15.33
2022-10-02T14:12:23.856Z,15.36
2022-10-02T14:15:30.401Z,15.40
2022-10-02T14:18:30.274Z,15.42
2022-10-02T14:21:09.410Z,15.46
2022-10-02T14:23:55.693Z,15.32
2022-10-02T14:26:33.562Z,15.36
2022-10-02T14:29:29.619Z,15.40
2022-10-02T14:32:21.129Z,15.43
2022-10-02T14:35:03.535Z,15.48
2022-10-02T14:37:58.583Z,15.53
2022-10-02T14:40:36.558Z,15.55
2022-10-02T14:43:24.959Z,15.57
2022-10-02T14:46:05.483Z,15.51
2022-10-02T14:49:11.337Z,15.51
2022-10-02T14:52:21.556Z,15.58
2022-10-02T14:55:12.027Z,15.59
2022-10-02T14:58:04.049Z,15.62
2022-10-02T15:00:41.167Z,15.64
2022-10-02T15:03:40.289Z,15.67
2022-10-02T15:06:24.177Z,15.68
2022-10-02T15:08:57.486Z,15.66
2022-10-02T15:11:48.965Z,15.62
2022-10-02T15:14:21.281Z,15.63
2022-10-02T15:16:59.367Z,15.62
2022-10-02T15:19:35.327Z,15.65
2022-10-02T15:22:12.078Z,15.62
2022-10-02T15:24:44.000Z,15.60
2022-10-02T15:27:22.713Z,15.61
2022-10-02T15:30:01.011Z,15.60
2022-10-02T15:32:54.879Z,15.57
2022-10-02T15:36:16.470Z,15.52
2022-10-02T15:39:23.044Z,15.51
2022-10-02T15:42:06.789Z,15.50
2022-10-02T15:45:02.897Z,15.47
2022-10-02T15:47:48.324Z,15.40
2022-10-02T15:50:35.010Z,15.32
2022-10-02T15:53:24.010Z,15.28
2022-10-02T15:55:57.145Z,15.28
2022-10-02T15:58:50.231Z,15.14
2022-10-02T16:01:33.285Z,15.06
2022-10-02T16:04:13.950Z,15.01
2022-10-02T16:06:58.326Z,14.92
2022-10-02T16:09:43.555Z,14.84
2022-10-02T16:12:33.451Z,14.78
2022-10-02T16:15:13.746Z,14.76
2022-10-02T16:18:07.856Z,14.72
2022-10-02T16:20:53.754Z,14.61
2022-10-02T16:24:03.034Z,14.55
2022-10-02T16:26:40.413Z,14.54
2022-10-02T16:29:32.634Z,14.49
2022-10-02T16:32:14.571Z,14.45
2022-10-02T16:35:12.724Z,14.40
2022-10-02T16:37:45.144Z,14.36
2022-10-02T16:40:39.206Z,14.30
2022-10-02T16:43:32.321Z,14.29
2022-10-02T16:46:10.519Z,14.26
2022-10-02T16:48:48.949Z,14.21
2022-10-02T16:51:33.959Z,14.16
2022-10-02T16:54:14.604Z,14.15
2022-10-02T16:56:47.888Z,14.07
2022-10-02T16:59:20.664Z,13.97
2022-10-02T17:02:15.999Z,13.96
2022-10-02T17:04:49.890Z,13.88
2022-10-02T17:07:42.618Z,13.84
2022-10-02T17:10:21.011Z,13.82
2022-10-02T17:12:56.527Z,13.77
2022-10-02T17:15:32.662Z,13.73
2022-10-02T17:18:20.007Z,13.71
2022-10-02T17:20:51.790Z,13.70
2022-10-02T17:23:27.607Z,13.70
2022-10-02T17:26:04.270Z,13.65
2022-10-02T17:28:40.646Z,13.63
2022-10-02T17:31:28.674Z,13.59
2022-10-02T17:33:57.767Z,13.56
2022-10-02T17:36:35.136Z,13.51
2022-10-02T17:39:30.876Z,13.47
2022-10-02T17:42:09.248Z,13.43
2022-10-02T17:44:46.564Z,13.43
2022-10-02T17:47:48.668Z,13.41
2022-10-02T17:50:39.856Z,13.35
2022-10-02T17:53:28.270Z,13.31
2022-10-02T17:56:16.214Z,13.27
2022-10-02T17:58:50.394Z,13.26
2022-10-02T18:01:28.191Z,13.21
2022-10-02T18:04:05.419Z,13.22
2022-10-02T18:06:39.583Z,13.22
2022-10-02T18:09:27.284Z,13.23
2022-10-02T18:12:17.258Z,13.23
2022-10-02T18:15:16.030Z,13.20
2022-10-02T18:17:57.084Z,13.18
2022-10-02T18:20:34.195Z,13.15
2022-10-02T18:23:43.736Z,13.13
2022-10-02T18:26:25.465Z,13.11
2022-10-02T18:29:26.909Z,13.10
2022-10-02T18:32:22.224Z,13.13
2022-10-02T18:35:05.463Z,13.08
2022-10-02T18:37:53.080Z,13.09
2022-10-02T18:40:27.054Z,13.07
2022-10-02T18:43:20.560Z,13.04
2022-10-02T18:46:01.514Z,13.03
2022-10-02T18:48:43.100Z,13.03
2022-10-02T18:51:30.768Z,12.98
2022-10-02T18:54:08.506Z,12.95
2022-10-02T18:57:00.190Z,12.88
2022-10-02T18:59:42.285Z,12.86
2022-10-02T19:02:35.082Z,12.83
2022-10-02T19:05:24.139Z,12.79
2022-10-02T19:08:09.373Z,12.75
2022-10-02T19:10:44.855Z,12.72
2022-10-02T19:13:18.363Z,12.73
2022-10-02T19:15:49.212Z,12.69
2022-10-02T19:18:20.008Z,12.64
2022-10-02T19:20:59.052Z,12.61
2022-10-02T19:23:33.329Z,12.60
2022-10-02T19:26:07.235Z,12.55
2022-10-02T19:28:43.039Z,12.51
2022-10-02T19:31:10.641Z,12.47
2022-10-02T19:33:47.107Z,12.44
2022-10-02T19:36:19.774Z,12.44
2022-10-02T19:38:54.854Z,12.46
2022-10-02T19:41:23.063Z,12.45
2022-10-02T19:43:56.723Z,12.43
2022-10-02T19:46:38.849Z,12.42
2022-10-02T19:49:14.089Z,12.38
2022-10-02T19:51:46.778Z,12.37
2022-10-02T19:54:20.007Z,12.34
2022-10-02T19:56:47.772Z,12.33
2022-10-02T19:59:18.581Z,12.35
2022-10-02T20:01:51.260Z,12.36
2022-10-02T20:04:24.806Z,12.34
2022-10-02T20:06:56.151Z,12.30
2022-10-02T20:09:30.477Z,12.30
2022-10-02T20:12:05.017Z,12.30
2022-10-02T20:14:39.110Z,12.28
2022-10-02T20:17:06.212Z,12.28
2022-10-02T20:19:39.235Z,12.30
2022-10-02T20:22:18.148Z,12.32
2022-10-02T20:24:51.260Z,12.29
2022-10-02T20:27:26.782Z,12.21
2022-10-02T20:30:00.479Z,12.19
2022-10-02T20:32:31.841Z,12.17
2022-10-02T20:35:08.020Z,12.17
2022-10-02T20:37:36.819Z,12.16
2022-10-02T20:40:14.846Z,12.15
2022-10-02T20:42:50.995Z,12.12
2022-10-02T20:45:18.383Z,12.10
2022-10-02T20:48:49.480Z,12.10
2022-10-02T20:51:44.017Z,12.09
2022-10-02T20:54:32.698Z,12.10
2022-10-02T20:57:55.962Z,12.07
2022-10-02T21:00:21.882Z,12.06
2022-10-02T21:03:20.212Z,12.02
2022-10-02T21:06:24.194Z,12.02
2022-10-02T21:09:21.751Z,12.00
2022-10-02T21:12:04.666Z,12.00
2022-10-02T21:14:52.816Z,11.98
2022-10-02T21:17:49.009Z,12.01
2022-10-02T21:20:50.804Z,11.99
2022-10-02T21:23:38.407Z,11.94
2022-10-02T21:26:35.065Z,11.86
2022-10-02T21:29:28.929Z,11.81
2022-10-02T21:32:22.448Z,11.75
2022-10-02T21:35:06.409Z,11.69
2022-10-02T21:37:47.763Z,11.73
2022-10-02T21:40:54.200Z,11.75
2022-10-02T21:43:57.619Z,11.71
2022-10-02T21:47:08.997Z,11.63
2022-10-02T21:50:00.835Z,11.59
2022-10-02T21:53:23.294Z,11.52
2022-10-02T21:56:22.569Z,11.46
2022-10-02T21:59:34.579Z,11.42
2022-10-02T22:02:34.437Z,11.43
2022-10-02T22:05:42.003Z,11.46
2022-10-02T22:08:18.077Z,11.49
2022-10-02T22:10:53.525Z,11.48
2022-10-02T22:13:27.485Z,11.48
2022-10-02T22:16:07.070Z,11.50
2022-10-02T22:18:45.530Z,11.52
2022-10-02T22:21:29.545Z,11.51
2022-10-02T22:24:12.349Z,11.52
2022-10-02T22:27:04.486Z,11.56
2022-10-02T22:29:44.814Z,11.52
2022-10-02T22:32:35.765Z,11.53
2022-10-02T22:35:15.837Z,11.53
2022-10-02T22:37:58.793Z,11.55
2022-10-02T22:40:31.565Z,11.57
2022-10-02T22:43:03.869Z,11.55
2022-10-02T22:45:39.662Z,11.58
2022-10-02T22:48:15.228Z,11.59
2022-10-02T22:50:48.296Z,11.56
2022-10-02T22:53:21.024Z,11.52
2022-10-02T22:55:52.191Z,11.48
2022-10-02T22:58:29.722Z,11.47
2022-10-02T23:01:06.545Z,11.44
2022-10-02T23:03:40.966Z,11.40
2022-10-02T23:06:21.694Z,11.38
2022-10-02T23:08:59.845Z,11.32
2022-10-02T23:11:37.453Z,11.25
2022-10-02T23:14:14.616Z,11.24
2022-10-02T23:16:47.219Z,11.19
2022-10-02T23:19:22.685Z,11.18
2022-10-02T23:21:53.878Z,11.16
2022-10-02T23:24:32.177Z,11.08
2022-10-02T23:27:10.475Z,11.03
2022-10-02T23:29:50.509Z,10.99
2022-10-02T23:32:25.772Z,10.92
2022-10-02T23:35:03.522Z,10.88
2022-10-02T23:37:41.959Z,10.84
2022-10-02T23:40:23.201Z,10.80
2022-10-02T23:42:56.816Z,10.78
2022-10-02T23:45:30.102Z,10.78
2022-10-02T23:48:00.473Z,10.82
2022-10-02T23:50:39.415Z,10.78
2022-10-02T23:53:28.785Z,10.72
2022-10-02T23:56:19.946Z,10.65
2022-10-02T23:59:05.561Z,10.65
